14:39
Airports
Links
Donate
Help keep this website running!
PayPal
Bitcoin
METAR
BGJN 181350Z 12012KT 9999 FEW035 BKN046 BKN200 M08/M14 Q0979
Current Weather Conditions at BGJN
VFR 13:50:00 18-12-17
Altimeter:28.91 hg
Temp:-8.0°c 18°f
Dew point:-14.0°cf
Wind:12 knots, 13.8 mph, 6 m/s, from 120°
Visibility:6.21 statute miles
20000(BKN) Broken
4600(BKN) Broken
3500(FEW) A few
Past METAR reports
VFR 12:50:00 18-12-17
Altimeter:28.88 hg
Temp:-8.0°c 18°f
Dew point:-14.0°cf
Wind:10 knots, 11.5 mph, 5 m/s, from 130°
Visibility:6.21 statute miles
20000(BKN) Broken
4600(SCT) Scattered
3500(FEW) A few
BGJN 181250Z 13010KT 9999 FEW035 SCT046 BKN200 M08/M14 Q0978
VFR 11:50:00 18-12-17
Altimeter:28.88 hg
Temp:-9.0°c 16°f
Dew point:-14.0°cf
Wind:8 knots, 9.2 mph, 4 m/s, from 120°
Visibility:6.21 statute miles
20000(SCT) Scattered
3500(FEW) A few
BGJN 181150Z 12008KT 9999 FEW035 SCT200 M09/M14 Q0978
VFR 10:50:00 18-12-17
Altimeter:28.88 hg
Temp:-9.0°c 16°f
Dew point:-14.0°cf
Wind:9 knots, 10.4 mph, 5 m/s, from 150°
Visibility:6.21 statute miles
20000(SCT) Scattered
3500(FEW) A few
BGJN 181050Z 15009KT 9999 FEW035 SCT200 M09/M14 Q0978
VFR 09:50:00 18-12-17
Altimeter:28.85 hg
Temp:-8.0°c 18°f
Dew point:-13.0°cf
Wind:9 knots, 10.4 mph, 5 m/s, from 160°
Visibility:6.21 statute miles
20000(SCT) Scattered
3500(FEW) A few
BGJN 180950Z 16009KT 9999 FEW035 SCT200 M08/M13 Q0977
08:50:00 18-12-17
Automated station, no observer
Altimeter:28.85 hg
Temp:-9.0°c 16°f
Dew point:-16.0°cf
Wind:9 knots, 10.4 mph, 5 m/s, from 130°
Visibility:Not reported
(CLR) Clear
BGJN 180850Z AUTO 13009KT 9999NDV NCD M09/M16 Q0977
TAF
TAF BGJN 181407Z 1815/1820 14015KT 9999 SCT035 BKN045 TEMPO 1815/1820 1500 SHSN DRSN BKN008
Forecast at BGJN
15:00 18-12-17 to 20:00 18-12-17
Wind:15 Knots from 140°
Visibility:6.21 statute miles
3500SCT Scattered
4500BKN Broken
TEMPO 15:00 18-12-17 to 20:00 18-12-17
SHSN DRSN
Visibility:0.93 statute miles
800BKN Broken